createdAt,value
2018-12-19T00:00:52.181Z,5.81
2018-12-19T00:01:52.207Z,5.78
2018-12-19T00:02:52.226Z,5.84
2018-12-19T00:03:52.252Z,5.84
2018-12-19T00:04:52.275Z,5.82
2018-12-19T00:05:52.295Z,5.78
2018-12-19T00:06:52.318Z,5.81
2018-12-19T00:07:52.344Z,5.82
2018-12-19T00:08:52.365Z,5.78
2018-12-19T00:09:52.388Z,5.84
2018-12-19T00:10:52.411Z,5.75
2018-12-19T00:11:52.430Z,5.78
2018-12-19T00:12:52.454Z,5.80
2018-12-19T00:13:52.479Z,5.81
2018-12-19T00:14:52.497Z,5.81
2018-12-19T00:15:52.521Z,5.84
2018-12-19T00:16:52.544Z,5.78
2018-12-19T00:17:52.567Z,5.81
2018-12-19T00:18:52.593Z,5.81
2018-12-19T00:19:52.611Z,5.82
2018-12-19T00:20:52.634Z,5.73
2018-12-19T00:21:52.659Z,5.81
2018-12-19T00:22:52.681Z,5.82
2018-12-19T00:23:52.704Z,5.85
2018-12-19T00:24:52.728Z,5.81
2018-12-19T00:25:52.747Z,5.78
2018-12-19T00:26:52.771Z,5.81
2018-12-19T00:27:52.791Z,5.82
2018-12-19T00:28:52.814Z,5.81
2018-12-19T00:29:52.840Z,5.82
2018-12-19T00:30:52.864Z,5.77
2018-12-19T00:31:52.881Z,5.81
2018-12-19T00:32:52.905Z,5.82
2018-12-19T00:33:52.927Z,5.85
2018-12-19T00:34:52.952Z,5.88
2018-12-19T00:35:52.974Z,5.87
2018-12-19T00:36:52.994Z,5.84
2018-12-19T00:37:53.017Z,5.88
2018-12-19T00:38:53.042Z,5.89
2018-12-19T00:39:53.062Z,5.96
2018-12-19T00:40:53.088Z,5.87
2018-12-19T00:41:53.112Z,6.05
2018-12-19T00:42:53.133Z,5.98
2018-12-19T00:43:53.153Z,6.03
2018-12-19T00:44:53.175Z,6.06
2018-12-19T00:45:53.199Z,6.03
2018-12-19T00:46:53.220Z,6.00
2018-12-19T00:47:53.248Z,6.00
2018-12-19T00:48:53.269Z,6.03
2018-12-19T00:49:53.295Z,6.02
2018-12-19T00:50:53.310Z,6.06
2018-12-19T00:51:53.337Z,5.92
2018-12-19T00:52:53.357Z,6.02
2018-12-19T00:53:53.380Z,6.03
2018-12-19T00:54:53.402Z,6.06
2018-12-19T00:55:53.427Z,5.98
2018-12-19T00:56:53.449Z,6.00
2018-12-19T00:57:53.471Z,5.99
2018-12-19T00:58:53.543Z,6.03
2018-12-19T00:59:53.516Z,5.92
2018-12-19T01:00:53.541Z,5.98
2018-12-19T01:01:53.561Z,5.89
2018-12-19T01:02:53.585Z,6.02
2018-12-19T01:03:53.609Z,6.02
2018-12-19T01:04:53.632Z,6.06
2018-12-19T01:05:53.651Z,6.00
2018-12-19T01:06:53.673Z,6.02
2018-12-19T01:07:53.697Z,6.10
2018-12-19T01:08:53.722Z,6.06
2018-12-19T01:09:53.746Z,6.13
2018-12-19T01:10:53.767Z,6.15
2018-12-19T01:11:53.849Z,6.15
2018-12-19T01:12:53.815Z,6.26
2018-12-19T01:13:53.835Z,6.29
2018-12-19T01:14:53.855Z,6.21
2018-12-19T01:15:53.881Z,6.36
2018-12-19T01:16:53.903Z,6.34
2018-12-19T01:17:53.926Z,6.29
2018-12-19T01:18:53.948Z,6.37
2018-12-19T01:19:53.971Z,6.39
2018-12-19T01:20:53.992Z,6.42
2018-12-19T01:21:54.017Z,6.47
2018-12-19T01:22:54.040Z,6.44
2018-12-19T01:23:54.059Z,6.43
2018-12-19T01:24:54.084Z,6.42
2018-12-19T01:25:54.165Z,6.54
2018-12-19T01:26:54.129Z,6.40
2018-12-19T01:27:54.150Z,6.42
2018-12-19T01:28:54.175Z,6.43
2018-12-19T01:29:54.196Z,6.44
2018-12-19T01:30:54.220Z,6.49
2018-12-19T01:31:54.241Z,6.46
2018-12-19T01:32:54.265Z,6.47
2018-12-19T01:33:54.289Z,6.47
2018-12-19T01:34:54.312Z,6.43
2018-12-19T01:35:54.331Z,6.46
2018-12-19T01:36:54.356Z,6.44
2018-12-19T01:37:54.380Z,6.47
2018-12-19T01:38:54.401Z,6.43
2018-12-19T01:39:54.424Z,6.43
2018-12-19T01:40:54.447Z,6.42
2018-12-19T01:41:54.470Z,6.46
2018-12-19T01:42:54.489Z,6.47
2018-12-19T01:43:54.514Z,6.54
2018-12-19T01:44:54.538Z,6.46
2018-12-19T01:45:54.558Z,6.46
2018-12-19T01:46:54.587Z,6.43
2018-12-19T01:47:54.602Z,6.44
2018-12-19T01:48:54.628Z,6.44
2018-12-19T01:49:54.647Z,6.44
2018-12-19T01:50:54.670Z,6.47
2018-12-19T01:51:54.692Z,6.44
2018-12-19T01:52:54.718Z,6.54
2018-12-19T01:53:54.739Z,6.49
2018-12-19T01:54:54.762Z,6.51
2018-12-19T01:55:54.783Z,6.43
2018-12-19T01:56:54.808Z,6.43
2018-12-19T01:57:54.831Z,6.49
2018-12-19T01:58:54.851Z,6.51
2018-12-19T01:59:54.875Z,6.51
2018-12-19T02:00:54.896Z,6.52
2018-12-19T02:01:54.927Z,6.51
2018-12-19T02:02:54.945Z,6.57
2018-12-19T02:03:54.971Z,6.58
2018-12-19T02:04:54.986Z,6.54
2018-12-19T02:05:55.020Z,6.57
2018-12-19T02:06:55.031Z,6.54
2018-12-19T02:07:55.056Z,6.60
2018-12-19T02:08:55.080Z,6.62
2018-12-19T02:09:55.103Z,6.61
2018-12-19T02:10:55.122Z,6.61
2018-12-19T02:11:55.149Z,6.61
2018-12-19T02:12:55.170Z,6.61
2018-12-19T02:13:55.192Z,6.68
2018-12-19T02:14:55.216Z,6.73
2018-12-19T02:15:55.438Z,6.64
2018-12-19T02:16:55.260Z,6.73
2018-12-19T02:17:55.285Z,6.78
2018-12-19T02:18:55.454Z,6.68
2018-12-19T02:19:55.332Z,6.73
2018-12-19T02:20:55.352Z,6.78
2018-12-19T02:21:55.423Z,6.70
2018-12-19T02:22:55.395Z,6.72
2018-12-19T02:23:55.418Z,6.78
2018-12-19T02:24:55.443Z,6.79
2018-12-19T02:25:55.464Z,6.67
2018-12-19T02:26:55.488Z,6.79
2018-12-19T02:27:55.611Z,6.72
2018-12-19T02:28:55.534Z,6.83
2018-12-19T02:29:55.557Z,6.85
2018-12-19T02:30:55.580Z,6.79
2018-12-19T02:31:55.600Z,6.86
2018-12-19T02:32:55.622Z,6.91
2018-12-19T02:33:55.648Z,6.91
2018-12-19T02:34:55.669Z,6.95
2018-12-19T02:35:55.689Z,6.95
2018-12-19T02:36:55.722Z,6.97
2018-12-19T02:37:55.741Z,6.95
2018-12-19T02:38:55.761Z,6.80
2018-12-19T02:39:55.784Z,6.91
2018-12-19T02:40:55.807Z,6.90
2018-12-19T02:41:55.828Z,6.93
2018-12-19T02:42:55.850Z,6.82
2018-12-19T02:43:55.906Z,6.98
2018-12-19T02:44:55.903Z,6.88
2018-12-19T02:45:55.921Z,6.90
2018-12-19T02:46:55.942Z,6.90
2018-12-19T02:47:55.966Z,6.88
2018-12-19T02:48:55.989Z,6.85
2018-12-19T02:49:56.013Z,6.85
2018-12-19T02:50:56.035Z,6.80
2018-12-19T02:51:56.057Z,6.93
2018-12-19T02:52:56.083Z,6.80
2018-12-19T02:53:56.106Z,6.90
2018-12-19T02:54:56.126Z,7.03
2018-12-19T02:55:56.146Z,7.00
2018-12-19T02:56:56.171Z,7.05
2018-12-19T02:57:56.195Z,7.04
2018-12-19T02:58:56.214Z,7.05
2018-12-19T02:59:56.236Z,7.00
2018-12-19T03:00:56.261Z,6.98
2018-12-19T03:01:56.284Z,7.00
2018-12-19T03:02:56.307Z,7.05
2018-12-19T03:03:56.338Z,7.04
2018-12-19T03:04:56.358Z,7.03
2018-12-19T03:05:56.375Z,7.15
2018-12-19T03:06:56.397Z,7.05
2018-12-19T03:07:56.421Z,7.05
2018-12-19T03:08:56.450Z,7.09
2018-12-19T03:09:56.469Z,7.16
2018-12-19T03:10:56.494Z,7.16
2018-12-19T03:11:56.513Z,7.11
2018-12-19T03:12:56.538Z,7.21
2018-12-19T03:13:56.561Z,7.21
2018-12-19T03:14:56.584Z,7.23
2018-12-19T03:15:56.603Z,7.33
2018-12-19T03:16:56.627Z,7.29
2018-12-19T03:17:56.653Z,7.30
2018-12-19T03:18:56.675Z,7.45
2018-12-19T03:19:56.697Z,7.41
2018-12-19T03:20:56.719Z,7.45
2018-12-19T03:21:56.744Z,7.49
2018-12-19T03:22:56.767Z,7.48
2018-12-19T03:23:56.789Z,7.47
2018-12-19T03:24:56.810Z,7.49
2018-12-19T03:25:56.837Z,7.48
2018-12-19T03:26:56.863Z,7.52
2018-12-19T03:27:56.890Z,7.63
2018-12-19T03:28:56.905Z,7.55
2018-12-19T03:29:56.928Z,7.63
2018-12-19T03:30:56.952Z,7.70
2018-12-19T03:31:56.973Z,7.70
2018-12-19T03:32:56.998Z,7.59
2018-12-19T03:33:57.023Z,7.64
2018-12-19T03:34:57.044Z,7.73
2018-12-19T03:35:57.063Z,7.70
2018-12-19T03:36:57.091Z,7.67
2018-12-19T03:37:57.113Z,7.73
2018-12-19T03:38:57.134Z,7.77
2018-12-19T03:39:57.161Z,7.78
2018-12-19T03:40:57.180Z,7.77
2018-12-19T03:41:57.208Z,7.78
2018-12-19T03:42:57.224Z,7.75
2018-12-19T03:43:57.251Z,7.78
2018-12-19T03:44:57.275Z,7.82
2018-12-19T03:45:57.298Z,7.78
2018-12-19T03:46:57.322Z,7.80
2018-12-19T03:47:57.346Z,7.78
2018-12-19T03:48:57.368Z,7.82
2018-12-19T03:49:57.389Z,7.86
2018-12-19T03:50:57.410Z,7.86
2018-12-19T03:51:57.435Z,7.77
2018-12-19T03:52:57.460Z,7.88
2018-12-19T03:53:57.483Z,7.83
2018-12-19T03:54:57.505Z,7.82
2018-12-19T03:55:57.529Z,7.88
2018-12-19T03:56:57.554Z,7.91
2018-12-19T03:57:57.573Z,7.88
2018-12-19T03:58:57.600Z,7.88
2018-12-19T04:00:50.189Z,7.80
2018-12-19T04:01:50.219Z,7.92
2018-12-19T04:02:50.239Z,7.86
2018-12-19T04:03:50.264Z,7.83
2018-12-19T04:04:50.284Z,7.82
2018-12-19T04:05:50.309Z,7.89
2018-12-19T04:06:50.331Z,7.88
2018-12-19T04:07:50.370Z,7.83
2018-12-19T04:08:50.378Z,7.83
2018-12-19T04:09:57.470Z,7.88
2018-12-19T04:10:50.425Z,7.88
2018-12-19T04:11:50.450Z,7.80
2018-12-19T04:12:50.469Z,7.82
2018-12-19T04:13:50.492Z,7.86
2018-12-19T04:14:50.516Z,7.77
2018-12-19T04:15:50.539Z,7.88
2018-12-19T04:16:50.564Z,7.85
2018-12-19T04:17:50.587Z,7.86
2018-12-19T04:18:50.810Z,7.75
2018-12-19T04:19:50.635Z,7.88
2018-12-19T04:20:50.656Z,7.77
2018-12-19T04:21:50.683Z,7.85
2018-12-19T04:22:50.703Z,7.82
2018-12-19T04:23:50.729Z,7.88
2018-12-19T04:24:50.750Z,7.88
2018-12-19T04:25:50.771Z,7.88
2018-12-19T04:26:50.799Z,7.77
2018-12-19T04:27:50.826Z,7.78
2018-12-19T04:28:50.844Z,7.75
2018-12-19T04:29:50.868Z,7.78
2018-12-19T04:30:50.889Z,7.77
2018-12-19T04:31:50.915Z,7.77
2018-12-19T04:32:50.937Z,7.73
2018-12-19T04:33:50.960Z,7.74
2018-12-19T04:34:50.981Z,7.74
2018-12-19T04:35:51.009Z,7.68
2018-12-19T04:36:51.030Z,7.67
2018-12-19T04:37:51.054Z,7.63
2018-12-19T04:38:51.075Z,7.74
2018-12-19T04:39:51.101Z,7.68
2018-12-19T04:40:51.124Z,7.73
2018-12-19T04:41:51.145Z,7.63
2018-12-19T04:42:51.897Z,7.74
2018-12-19T04:43:51.192Z,7.67
2018-12-19T04:44:51.222Z,7.64
2018-12-19T04:45:51.238Z,7.58
2018-12-19T04:46:51.264Z,7.64
2018-12-19T04:47:51.287Z,7.71
2018-12-19T04:48:51.316Z,7.59
2018-12-19T04:49:51.332Z,7.70
2018-12-19T04:50:51.355Z,7.63
2018-12-19T04:51:51.382Z,7.64
2018-12-19T04:52:51.401Z,7.52
2018-12-19T04:53:51.433Z,7.64
2018-12-19T04:54:51.447Z,7.68
2018-12-19T04:55:51.471Z,7.63
2018-12-19T04:56:51.496Z,7.59
2018-12-19T04:57:51.524Z,7.56
2018-12-19T04:58:51.544Z,7.52
2018-12-19T04:59:51.566Z,7.56
2018-12-19T05:00:51.590Z,7.59
2018-12-19T05:01:51.612Z,7.52
2018-12-19T05:02:51.637Z,7.59
2018-12-19T05:03:51.657Z,7.47
2018-12-19T05:04:51.683Z,7.64
2018-12-19T05:05:51.704Z,7.61
2018-12-19T05:06:51.729Z,7.51
2018-12-19T05:07:51.751Z,7.55
2018-12-19T05:08:51.775Z,7.59
2018-12-19T05:09:51.799Z,7.48
2018-12-19T05:10:51.822Z,7.47
2018-12-19T05:11:51.846Z,7.45
2018-12-19T05:12:51.868Z,7.41
2018-12-19T05:13:51.891Z,7.39
2018-12-19T05:14:51.915Z,7.41
2018-12-19T05:15:51.939Z,7.37
2018-12-19T05:16:51.961Z,7.47
2018-12-19T05:17:51.981Z,7.44
2018-12-19T05:18:52.007Z,7.47
2018-12-19T05:19:52.030Z,7.49
2018-12-19T05:20:52.054Z,7.45
2018-12-19T05:21:52.075Z,7.34
2018-12-19T05:22:52.100Z,7.52
2018-12-19T05:23:52.126Z,7.45
2018-12-19T05:24:52.144Z,7.45
2018-12-19T05:25:52.166Z,7.41
2018-12-19T05:26:52.190Z,7.52
2018-12-19T05:27:52.217Z,7.52
2018-12-19T05:28:52.238Z,7.49
2018-12-19T05:29:53.258Z,7.47
2018-12-19T05:30:52.288Z,7.44
2018-12-19T05:31:52.307Z,7.49
2018-12-19T05:32:52.329Z,7.47
2018-12-19T05:33:52.355Z,7.52
2018-12-19T05:34:52.376Z,7.51
2018-12-19T05:35:52.400Z,7.47
2018-12-19T05:36:52.430Z,7.47
2018-12-19T05:37:52.446Z,7.51
2018-12-19T05:38:52.528Z,7.47
2018-12-19T05:39:52.493Z,7.47
2018-12-19T05:40:52.515Z,7.55
2018-12-19T05:41:52.538Z,7.54
2018-12-19T05:42:52.564Z,7.64
2018-12-19T05:43:52.588Z,7.54
2018-12-19T05:44:52.612Z,7.49
2018-12-19T05:45:52.632Z,7.51
2018-12-19T05:46:52.657Z,7.56
2018-12-19T05:47:52.684Z,7.48
2018-12-19T05:48:52.704Z,7.52
2018-12-19T05:49:52.725Z,7.44
2018-12-19T05:50:52.751Z,7.47
2018-12-19T05:51:52.775Z,7.49
2018-12-19T05:52:52.861Z,7.58
2018-12-19T05:53:52.821Z,7.58
2018-12-19T05:54:52.846Z,7.55
2018-12-19T05:55:52.869Z,7.58
2018-12-19T05:56:52.891Z,7.67
2018-12-19T05:57:52.914Z,7.71
2018-12-19T05:58:52.939Z,7.61
2018-12-19T05:59:52.959Z,7.73
2018-12-19T06:00:52.985Z,7.78
2018-12-19T06:01:53.006Z,7.77
2018-12-19T06:02:53.030Z,7.82
2018-12-19T06:03:53.053Z,7.78
2018-12-19T06:04:53.078Z,7.86
2018-12-19T06:05:53.100Z,7.89
2018-12-19T06:06:53.124Z,7.95
2018-12-19T06:07:53.149Z,7.92
2018-12-19T06:08:53.172Z,7.95
2018-12-19T06:09:53.193Z,7.95
2018-12-19T06:10:53.215Z,7.98
2018-12-19T06:11:53.241Z,8.03
2018-12-19T06:12:53.265Z,8.04
2018-12-19T06:13:53.288Z,7.99
2018-12-19T06:14:53.313Z,7.99
2018-12-19T06:15:53.333Z,8.13
2018-12-19T06:16:53.356Z,7.99
2018-12-19T06:17:53.386Z,8.07
2018-12-19T06:18:53.402Z,8.11
2018-12-19T06:19:53.429Z,8.10
2018-12-19T06:20:53.449Z,8.10
2018-12-19T06:21:53.476Z,8.16
2018-12-19T06:22:53.499Z,8.21
2018-12-19T06:23:53.521Z,8.16
2018-12-19T06:24:53.545Z,8.19
2018-12-19T06:25:53.567Z,8.17
2018-12-19T06:26:53.594Z,8.21
2018-12-19T06:27:53.617Z,8.25
2018-12-19T06:28:53.637Z,8.22
2018-12-19T06:29:53.660Z,8.22
2018-12-19T06:30:53.690Z,8.19
2018-12-19T06:31:53.709Z,8.25
2018-12-19T06:32:53.732Z,8.28
2018-12-19T06:33:53.756Z,8.25
2018-12-19T06:34:53.783Z,8.24
2018-12-19T06:35:53.801Z,8.21
2018-12-19T06:36:53.826Z,8.28
2018-12-19T06:37:53.850Z,8.29
2018-12-19T06:38:53.870Z,8.31
2018-12-19T06:39:53.897Z,8.31
2018-12-19T06:40:53.920Z,8.40
2018-12-19T06:41:53.940Z,8.31
2018-12-19T06:42:53.967Z,8.31
2018-12-19T06:43:53.991Z,8.32
2018-12-19T06:44:54.010Z,8.29
2018-12-19T06:45:54.035Z,8.26
2018-12-19T06:46:54.060Z,8.22
2018-12-19T06:47:54.084Z,8.26
2018-12-19T06:48:54.104Z,8.25
2018-12-19T06:49:54.129Z,8.26
2018-12-19T06:50:54.151Z,8.25
2018-12-19T06:51:54.177Z,8.24
2018-12-19T06:52:54.198Z,8.24
2018-12-19T06:53:54.222Z,8.25
2018-12-19T06:54:54.248Z,8.31
2018-12-19T06:55:54.327Z,8.24
2018-12-19T06:56:54.292Z,8.26
2018-12-19T06:57:54.318Z,8.21
2018-12-19T06:58:54.341Z,8.24
2018-12-19T06:59:54.363Z,8.29
2018-12-19T07:00:54.388Z,8.28
2018-12-19T07:01:54.412Z,8.29
2018-12-19T07:02:54.435Z,8.29
2018-12-19T07:03:54.459Z,8.26
2018-12-19T07:04:54.481Z,8.32
2018-12-19T07:05:54.505Z,8.25
2018-12-19T07:06:54.529Z,8.29
2018-12-19T07:07:54.553Z,8.26
2018-12-19T07:08:54.575Z,8.28
2018-12-19T07:09:54.597Z,8.22
2018-12-19T07:10:54.620Z,8.22
2018-12-19T07:11:54.647Z,8.29
2018-12-19T07:12:54.670Z,8.29
2018-12-19T07:13:54.693Z,8.25
2018-12-19T07:14:54.734Z,8.25
2018-12-19T07:15:54.743Z,8.24
2018-12-19T07:16:54.764Z,8.31
2018-12-19T07:17:54.791Z,8.26
2018-12-19T07:18:54.811Z,8.26
2018-12-19T07:19:54.835Z,8.25
2018-12-19T07:20:54.856Z,8.25
2018-12-19T07:21:54.879Z,8.26
2018-12-19T07:22:54.902Z,8.19
2018-12-19T07:23:54.929Z,8.28
2018-12-19T07:24:54.952Z,8.16
2018-12-19T07:25:54.976Z,8.17
2018-12-19T07:26:54.999Z,8.24
2018-12-19T07:27:55.023Z,8.28
2018-12-19T07:28:55.046Z,8.19
2018-12-19T07:29:55.071Z,8.16
2018-12-19T07:30:55.091Z,8.13
2018-12-19T07:31:55.117Z,8.21
2018-12-19T07:32:55.139Z,8.26
2018-12-19T07:33:55.162Z,8.14
2018-12-19T07:34:55.185Z,8.19
2018-12-19T07:35:55.209Z,8.16
2018-12-19T07:36:55.234Z,8.19
2018-12-19T07:37:55.259Z,8.16
2018-12-19T07:38:55.283Z,8.28
2018-12-19T07:39:56.346Z,8.19
2018-12-19T07:40:55.328Z,8.19
2018-12-19T07:41:55.356Z,8.17
2018-12-19T07:42:55.376Z,8.17
2018-12-19T07:43:55.403Z,8.16
2018-12-19T07:44:55.422Z,8.14
2018-12-19T07:45:55.446Z,8.19
2018-12-19T07:46:55.469Z,8.21
2018-12-19T07:47:55.493Z,8.17
2018-12-19T07:48:55.513Z,8.17
2018-12-19T07:49:55.539Z,8.19
2018-12-19T07:50:55.563Z,8.11
2018-12-19T07:51:55.584Z,8.16
2018-12-19T07:52:55.610Z,7.96
2018-12-19T07:53:55.633Z,7.99
2018-12-19T07:54:55.661Z,8.04
2018-12-19T07:55:55.679Z,8.11
2018-12-19T07:56:55.704Z,8.03
2018-12-19T07:57:55.728Z,8.06
2018-12-19T07:58:55.751Z,8.03
2018-12-19T07:59:55.773Z,7.99
2018-12-19T08:00:55.798Z,8.01
2018-12-19T08:01:55.821Z,8.03
2018-12-19T08:02:55.843Z,7.99
2018-12-19T08:03:55.869Z,8.14
2018-12-19T08:04:55.889Z,8.04
2018-12-19T08:05:55.915Z,8.03
2018-12-19T08:06:55.937Z,7.98
2018-12-19T08:07:55.960Z,8.06
2018-12-19T08:08:55.987Z,7.99
2018-12-19T08:09:56.007Z,7.99
2018-12-19T08:10:56.036Z,7.98
2018-12-19T08:11:56.054Z,7.99
2018-12-19T08:12:56.077Z,8.03
2018-12-19T08:13:56.106Z,7.99
2018-12-19T08:14:56.124Z,8.04
2018-12-19T08:15:56.148Z,7.99
2018-12-19T08:16:56.171Z,8.03
2018-12-19T08:17:56.195Z,8.09
2018-12-19T08:18:56.218Z,8.01
2018-12-19T08:19:56.244Z,7.96
2018-12-19T08:20:56.267Z,8.06
2018-12-19T08:21:56.290Z,7.95
2018-12-19T08:22:56.311Z,8.03
2018-12-19T08:23:56.338Z,8.01
2018-12-19T08:24:56.359Z,8.01
2018-12-19T08:25:56.383Z,7.98
2018-12-19T08:26:56.406Z,8.03
2018-12-19T08:27:56.430Z,8.03
2018-12-19T08:28:56.452Z,8.06
2018-12-19T08:29:56.483Z,7.95
2018-12-19T08:30:56.502Z,7.98
2018-12-19T08:31:56.526Z,8.06
2018-12-19T08:32:56.549Z,8.01
2018-12-19T08:33:56.573Z,8.01
2018-12-19T08:34:56.598Z,8.01
2018-12-19T08:35:56.617Z,7.95
2018-12-19T08:36:56.643Z,8.04
2018-12-19T08:37:56.663Z,7.98
2018-12-19T08:38:56.689Z,8.06
2018-12-19T08:39:56.713Z,8.01
2018-12-19T08:40:58.996Z,8.04
2018-12-19T08:41:56.759Z,7.96
2018-12-19T08:42:56.791Z,8.03
2018-12-19T08:43:56.809Z,7.98
2018-12-19T08:44:56.835Z,8.03
2018-12-19T08:45:56.855Z,8.03
2018-12-19T08:46:56.879Z,7.96
2018-12-19T08:47:56.906Z,7.95
2018-12-19T08:48:56.923Z,7.93
2018-12-19T08:49:56.947Z,7.99
2018-12-19T08:50:57.034Z,7.99
2018-12-19T08:51:56.995Z,8.01
2018-12-19T08:52:57.017Z,7.98
2018-12-19T08:53:57.046Z,7.99
2018-12-19T08:54:57.065Z,8.01
2018-12-19T08:55:57.089Z,7.95
2018-12-19T08:56:57.116Z,8.01
2018-12-19T08:57:57.137Z,8.07
2018-12-19T08:58:57.164Z,8.04
2018-12-19T08:59:57.185Z,7.91
2018-12-19T09:00:57.209Z,8.01
2018-12-19T09:01:57.232Z,8.01
2018-12-19T09:02:57.256Z,8.03
2018-12-19T09:03:57.280Z,8.01
2018-12-19T09:04:57.301Z,7.99
2018-12-19T09:05:57.326Z,8.04
2018-12-19T09:06:57.352Z,8.06
2018-12-19T09:07:57.375Z,8.03
2018-12-19T09:08:57.395Z,8.04
2018-12-19T09:09:57.419Z,7.96
2018-12-19T09:10:57.444Z,8.04
2018-12-19T09:11:57.469Z,7.96
2018-12-19T09:12:57.492Z,7.99
2018-12-19T09:13:57.514Z,8.01
2018-12-19T09:14:57.537Z,7.99
2018-12-19T09:15:57.563Z,7.99
2018-12-19T09:16:57.590Z,8.01
2018-12-19T09:17:57.612Z,8.01
2018-12-19T09:18:57.634Z,7.96
2018-12-19T09:19:57.658Z,8.09
2018-12-19T09:20:57.679Z,8.13
2018-12-19T09:21:57.702Z,8.14
2018-12-19T09:22:57.727Z,8.13
2018-12-19T09:23:57.752Z,8.16
2018-12-19T09:24:57.776Z,8.17
2018-12-19T09:25:57.797Z,8.10
2018-12-19T09:26:57.823Z,8.21
2018-12-19T09:27:57.845Z,8.22
2018-12-19T09:28:57.867Z,8.21
2018-12-19T09:29:57.896Z,8.25
2018-12-19T09:30:57.916Z,8.28
2018-12-19T09:31:57.945Z,8.32
2018-12-19T09:32:57.962Z,8.26
2018-12-19T09:33:57.986Z,8.35
2018-12-19T09:34:58.013Z,8.35
2018-12-19T09:35:58.037Z,8.31
2018-12-19T09:36:58.057Z,8.34
2018-12-19T09:37:58.083Z,8.35
2018-12-19T09:38:58.108Z,8.43
2018-12-19T09:39:58.130Z,8.40
2018-12-19T09:40:58.154Z,8.44
2018-12-19T09:41:58.181Z,8.44
2018-12-19T09:42:58.199Z,8.44
2018-12-19T09:43:58.224Z,8.47
2018-12-19T09:44:58.248Z,8.53
2018-12-19T09:45:58.272Z,8.53
2018-12-19T09:46:58.296Z,8.46
2018-12-19T09:47:58.320Z,8.49
2018-12-19T09:48:58.343Z,8.58
2018-12-19T09:49:58.367Z,8.67
2018-12-19T09:50:58.389Z,8.65
2018-12-19T09:51:58.413Z,8.71
2018-12-19T09:52:58.442Z,8.68
2018-12-19T09:53:58.461Z,8.65
2018-12-19T09:54:58.488Z,8.67
2018-12-19T09:55:58.512Z,8.58
2018-12-19T09:56:58.537Z,8.61
2018-12-19T09:57:58.558Z,8.64
2018-12-19T09:58:58.580Z,8.64
2018-12-19T09:59:58.604Z,8.69
2018-12-19T10:00:58.903Z,8.72
2018-12-19T10:01:58.653Z,8.76
2018-12-19T10:02:58.678Z,8.82
2018-12-19T10:03:58.854Z,8.87
2018-12-19T10:04:58.723Z,8.92
2018-12-19T10:05:58.750Z,8.80
2018-12-19T10:06:58.774Z,8.97
2018-12-19T10:07:58.799Z,8.98
2018-12-19T10:08:58.821Z,9.01
2018-12-19T10:09:58.843Z,9.03
2018-12-19T10:10:58.868Z,9.11
2018-12-19T10:11:58.894Z,9.09
2018-12-19T10:12:58.918Z,9.16
2018-12-19T10:13:58.940Z,9.27
2018-12-19T10:14:58.964Z,9.32
2018-12-19T10:15:58.987Z,9.39
2018-12-19T10:16:59.013Z,9.53
2018-12-19T10:17:59.039Z,9.57
2018-12-19T10:18:59.063Z,9.66
2018-12-19T10:19:59.086Z,9.59
2018-12-19T10:20:59.110Z,9.72
2018-12-19T10:21:59.139Z,10.11
2018-12-19T10:22:59.159Z,9.88
2018-12-19T10:23:59.187Z,9.96
2018-12-19T10:24:59.208Z,9.99
2018-12-19T10:25:59.232Z,9.89
2018-12-19T10:26:59.260Z,9.96
2018-12-19T10:27:59.282Z,9.85
2018-12-19T10:28:59.307Z,9.66
2018-12-19T10:29:59.333Z,9.64
2018-12-19T10:30:59.423Z,9.47
2018-12-19T10:31:59.380Z,9.52
2018-12-19T10:32:59.405Z,9.44
2018-12-19T10:33:59.430Z,9.32
2018-12-19T10:34:59.455Z,9.42
2018-12-19T10:35:59.482Z,9.39
2018-12-19T10:36:59.503Z,9.45
2018-12-19T10:37:59.530Z,9.39
2018-12-19T10:38:59.555Z,9.44
2018-12-19T10:39:59.578Z,9.39
2018-12-19T10:40:59.605Z,9.35
2018-12-19T10:41:59.627Z,9.44
2018-12-19T10:42:59.655Z,9.38
2018-12-19T10:43:59.679Z,9.50
2018-12-19T10:44:59.701Z,9.48
2018-12-19T10:45:59.727Z,9.52
2018-12-19T10:46:59.750Z,9.57
2018-12-19T10:47:59.777Z,9.59
2018-12-19T10:48:59.799Z,9.63
2018-12-19T10:49:59.825Z,9.63
2018-12-19T10:50:59.849Z,9.67
2018-12-19T10:51:59.876Z,9.52
2018-12-19T10:52:59.900Z,9.64
2018-12-19T10:53:59.925Z,9.62
2018-12-19T10:54:59.948Z,9.63
2018-12-19T10:55:59.974Z,9.71
2018-12-19T10:57:00.000Z,9.63
2018-12-19T10:58:00.025Z,9.70
2018-12-19T10:59:00.047Z,9.80
2018-12-19T11:00:00.073Z,9.89
2018-12-19T11:01:00.101Z,9.90
2018-12-19T11:02:00.124Z,9.92
2018-12-19T11:03:00.154Z,9.95
2018-12-19T11:04:00.207Z,9.84
2018-12-19T11:05:00.207Z,9.89
2018-12-19T11:06:00.299Z,9.81
2018-12-19T11:07:00.274Z,9.82
2018-12-19T11:08:00.279Z,9.66
2018-12-19T11:09:00.356Z,9.71
2018-12-19T11:10:00.345Z,9.67
2018-12-19T11:11:00.364Z,9.59
2018-12-19T11:12:00.388Z,9.59
2018-12-19T11:13:00.427Z,9.63
2018-12-19T11:14:00.426Z,9.59
2018-12-19T11:15:00.446Z,9.57
2018-12-19T11:16:00.474Z,9.57
2018-12-19T11:17:00.493Z,9.56
2018-12-19T11:18:00.522Z,9.62
2018-12-19T11:19:00.546Z,9.70
2018-12-19T11:20:00.567Z,9.62
2018-12-19T11:21:00.594Z,9.64
2018-12-19T11:22:00.626Z,9.67
2018-12-19T11:23:00.643Z,9.70
2018-12-19T11:24:00.666Z,9.77
2018-12-19T11:25:00.690Z,9.74
2018-12-19T11:26:00.717Z,9.74
2018-12-19T11:27:00.741Z,9.74
2018-12-19T11:28:00.765Z,9.80
2018-12-19T11:29:00.794Z,9.81
2018-12-19T11:30:00.817Z,9.77
2018-12-19T11:31:00.839Z,9.75
2018-12-19T11:32:00.876Z,9.82
2018-12-19T11:33:00.892Z,9.80
2018-12-19T11:34:00.914Z,9.88
2018-12-19T11:35:00.940Z,9.81
2018-12-19T11:36:00.963Z,9.88
2018-12-19T11:37:00.987Z,9.88
2018-12-19T11:38:01.016Z,9.88
2018-12-19T11:39:01.037Z,9.89
2018-12-19T11:40:01.061Z,9.88
2018-12-19T11:41:01.088Z,9.82
2018-12-19T11:42:01.113Z,9.85
2018-12-19T11:43:01.138Z,9.82
2018-12-19T11:44:01.163Z,9.77
2018-12-19T11:45:01.185Z,9.85
2018-12-19T11:46:01.212Z,9.90
2018-12-19T11:47:01.234Z,9.90
2018-12-19T11:48:01.259Z,9.96
2018-12-19T11:49:01.285Z,9.95
2018-12-19T11:50:01.323Z,9.92
2018-12-19T11:51:01.333Z,9.93
2018-12-19T11:52:01.361Z,9.99
2018-12-19T11:53:01.382Z,9.95
2018-12-19T11:54:01.407Z,10.08
2018-12-19T11:55:01.435Z,10.08
2018-12-19T11:56:01.460Z,10.07
2018-12-19T11:57:01.481Z,10.21
2018-12-19T11:58:01.508Z,10.32
2018-12-19T11:59:01.533Z,10.20
2018-12-19T12:00:01.559Z,10.17
2018-12-19T12:01:01.581Z,10.14
2018-12-19T12:02:01.608Z,10.08
2018-12-19T12:03:01.629Z,10.13
2018-12-19T12:04:01.661Z,10.17
2018-12-19T12:05:01.680Z,10.03
2018-12-19T12:06:01.709Z,10.15
2018-12-19T12:07:01.733Z,10.17
2018-12-19T12:08:01.756Z,10.07
2018-12-19T12:09:01.783Z,10.13
2018-12-19T12:10:01.805Z,10.10
2018-12-19T12:11:01.834Z,10.05
2018-12-19T12:12:01.857Z,10.13
2018-12-19T12:13:01.882Z,10.13
2018-12-19T12:14:01.905Z,10.07
2018-12-19T12:15:01.936Z,10.20
2018-12-19T12:16:01.955Z,10.15
2018-12-19T12:17:01.979Z,10.17
2018-12-19T12:18:02.004Z,10.18
2018-12-19T12:19:02.035Z,10.21
2018-12-19T12:20:02.055Z,10.17
2018-12-19T12:21:02.082Z,10.15
2018-12-19T12:22:02.106Z,10.15
2018-12-19T12:23:02.131Z,10.20
2018-12-19T12:24:02.156Z,10.17
2018-12-19T12:25:02.178Z,10.17
2018-12-19T12:26:02.206Z,10.20
2018-12-19T12:27:02.429Z,10.15
2018-12-19T12:28:02.255Z,10.18
2018-12-19T12:29:02.306Z,10.26
2018-12-19T12:30:02.458Z,10.23
2018-12-19T12:31:02.328Z,10.21
2018-12-19T12:32:02.355Z,10.21
2018-12-19T12:33:02.434Z,10.17
2018-12-19T12:34:02.405Z,10.18
2018-12-19T12:35:02.430Z,10.17
2018-12-19T12:36:02.456Z,10.18
2018-12-19T12:37:02.478Z,10.28
2018-12-19T12:38:02.503Z,10.35
2018-12-19T12:39:02.530Z,10.20
2018-12-19T12:40:02.560Z,10.31
2018-12-19T12:41:02.580Z,10.32
2018-12-19T12:42:02.604Z,10.26
2018-12-19T12:43:02.633Z,10.36
2018-12-19T12:44:02.653Z,10.31
2018-12-19T12:45:02.679Z,10.35
2018-12-19T12:46:02.705Z,10.41
2018-12-19T12:47:02.728Z,10.35
2018-12-19T12:53:55.281Z,10.28
2018-12-19T12:54:55.308Z,10.25
2018-12-19T12:55:55.333Z,10.33
2018-12-19T12:56:55.357Z,10.38
2018-12-19T12:57:55.383Z,10.28
2018-12-19T12:58:55.408Z,10.38
2018-12-19T12:59:55.431Z,10.29
2018-12-19T13:00:55.457Z,10.35
2018-12-19T13:01:55.484Z,10.20
2018-12-19T13:02:55.507Z,10.23
2018-12-19T13:03:55.538Z,10.23
2018-12-19T13:04:55.559Z,10.29
2018-12-19T13:05:55.579Z,10.26
2018-12-19T13:06:55.607Z,10.25
2018-12-19T13:07:55.634Z,10.32
2018-12-19T13:08:55.656Z,10.33
2018-12-19T13:09:55.682Z,10.33
2018-12-19T13:10:55.707Z,10.38
2018-12-19T13:11:58.807Z,10.20
2018-12-19T13:12:55.753Z,10.31
2018-12-19T13:13:55.780Z,10.26
2018-12-19T13:14:55.806Z,10.38
2018-12-19T13:15:55.830Z,10.33
2018-12-19T13:16:55.857Z,10.35
2018-12-19T13:17:55.881Z,10.25
2018-12-19T13:18:55.904Z,10.35
2018-12-19T13:19:55.932Z,10.33
2018-12-19T13:20:55.957Z,10.35
2018-12-19T13:21:55.981Z,10.38
2018-12-19T13:22:56.006Z,10.29